Beardsley, Minnesota
Current Conditions -  °F | °C
As of 9:16 AM on Thursday 30 Oct 2014 (Local Time) from KETH Reporting Station
Overcast Overcast  
Wind Chill: 34°   Ceiling: 3800
Heat Index: 37°   Visibility: 7mi
Dew Point: 36°   Wind: 5mph
Humidity: 93%   Direction: 350°N
Pressure: 30.11"   Gusts: NA
Location:  45.56°N, 96.71°W
Report Text: KETH 301416Z AUTO 35004KT 7SM OVC038 03/02 A3011 RMK AO2
Loading
Personal Weather Stations






























Interactive Weather Map
Tropical Storm Tracking
New forecast layout! Learn more

10-Day Weather Forecast

Advertisements
Track Severe Weather on mobile